This is the latest recevied weather packets stored in our database for station/object VY2CRA-4. If no packets are shown the sender has not sent any weather packets the latest 10 day(s).
| Time | Temp. | Humidity | Pressure | Rain* | Wind** | Luminosity | Snow |
|---|---|---|---|---|---|---|---|
| 1788288443 | 23.89° C | 36% | 1015.1 hPa | 0 mm | - | - | - |
| 1788287242 | 23.89° C | 35% | 1015 hPa | 0 mm | - | - | - |
| 1788286041 | 24.44° C | 32% | 1015.1 hPa | 0 mm | - | - | - |
| 1788284840 | 25° C | 30% | 1015.2 hPa | 0 mm | - | - | - |
| 1788283639 | 25.56° C | 28% | 1015.1 hPa | 0 mm | - | - | - |
| 1788282439 | 26.11° C | 26% | 1015 hPa | 0 mm | - | - | - |
| 1788280037 | 27.78° C | 23% | 1014.8 hPa | 0 mm | - | - | - |
| 1788277635 | 28.89° C | 18% | 1014.8 hPa | 0 mm | - | - | - |
| 1788276434 | 30° C | 16% | 1014.7 hPa | 0 mm | - | - | - |
| 1788274032 | 30.56° C | 17% | 1014.5 hPa | 0 mm | - | - | - |
| 1788271630 | 29.44° C | 18% | 1014.5 hPa | 0 mm | - | - | - |
| 1788269228 | 31.11° C | 14% | 1014.3 hPa | 0 mm | - | - | - |
| 1788266826 | 30.56° C | 16% | 1014.2 hPa | 0 mm | - | - | - |
| 1788265625 | 30.56° C | 17% | 1014.1 hPa | 0 mm | - | - | - |
| 1788264424 | 30° C | 18% | 1014.1 hPa | 0 mm | - | - | - |
| 1788263223 | 29.44° C | 22% | 1013.9 hPa | 0 mm | - | - | - |
| 1788262022 | 26.67° C | 31% | 1013.8 hPa | 0 mm | - | - | - |
| 1788260822 | 24.44° C | 39% | 1013.7 hPa | 0 mm | - | - | - |
| 1788259621 | 21.11° C | 48% | 1013.6 hPa | 0 mm | - | - | - |
| 1788258420 | 19.44° C | 48% | 1013.5 hPa | 0 mm | - | - | - |
| 1788257219 | 18.89° C | 49% | 1013.4 hPa | 0 mm | - | - | - |
| 1788256018 | 18.89° C | 49% | 1013.3 hPa | 0 mm | - | - | - |
| 1788254817 | 18.33° C | 49% | 1013.2 hPa | 0 mm | - | - | - |
| 1788253616 | 18.33° C | 49% | 1013.1 hPa | 0 mm | - | - | - |
| 1788252415 | 17.78° C | 49% | 1013.1 hPa | 0 mm | - | - | - |
* Rain since midnight (hover to see other rain measurements)
** Current wind speed in m/s (hover to see current wind gust speed)